Time;durP1;ratioP1;P1;durP2;ratioP2;P2;SDS_P1;SDS_P2;PMS_P1;PMS_P2;Temp;Humidity;BMP_temperature;BMP_pressure;BME280_temperature;BME280_humidity;BME280_pressure;Samples;Min_cycle;Max_cycle;Signal;HPM_P1;HPM_P2
2022/05/15 00:00:47;;;;;;;22.73;5.65;;;;;;;16.17;56.62;102064.91;5082191;28;20066;-53
2022/05/15 00:03:16;;;;;;;26.50;6.32;;;;;;;16.16;56.42;102062.28;5059953;28;20479;-50
2022/05/15 00:05:43;;;;;;;20.15;5.45;;;;;;;16.10;56.35;102065.59;5077287;28;20466;-52
2022/05/15 00:08:09;;;;;;;19.48;5.00;;;;;;;16.03;56.35;102068.88;5082414;28;20042;-50
2022/05/15 00:10:36;;;;;;;21.60;5.65;;;;;;;15.99;56.51;102070.50;5081524;28;20373;-53
2022/05/15 00:13:03;;;;;;;20.10;5.30;;;;;;;15.93;56.77;102064.28;5080235;28;20439;-52
2022/05/15 00:15:30;;;;;;;21.20;5.40;;;;;;;15.83;56.84;102065.75;5075692;28;20085;-49
2022/05/15 00:17:56;;;;;;;23.02;5.90;;;;;;;15.80;57.05;102069.16;5077865;28;20023;-51
2022/05/15 00:20:21;;;;;;;22.10;5.60;;;;;;;15.72;57.38;102068.09;5079066;28;20039;-52
2022/05/15 00:22:46;;;;;;;22.50;5.57;;;;;;;15.75;57.35;102064.69;5079450;28;20494;-52
2022/05/15 00:25:12;;;;;;;23.58;5.93;;;;;;;15.67;57.57;102058.44;5080143;28;20099;-53
2022/05/15 00:27:37;;;;;;;20.98;6.07;;;;;;;15.71;57.85;102062.84;5071074;28;20115;-44
2022/05/15 00:30:03;;;;;;;20.08;6.05;;;;;;;15.65;57.88;102054.91;5077120;28;20036;-50
2022/05/15 00:32:28;;;;;;;22.67;6.18;;;;;;;15.58;57.83;102061.63;5077936;28;20107;-50
2022/05/15 00:34:54;;;;;;;19.58;6.15;;;;;;;15.55;57.92;102057.25;5080310;28;20024;-50
2022/05/15 00:37:19;;;;;;;26.85;5.55;;;;;;;15.55;57.92;102053.78;5075641;28;20594;-53
2022/05/15 00:39:44;;;;;;;22.20;5.50;;;;;;;15.54;58.07;102050.31;5072682;28;20114;-53
2022/05/15 00:42:11;;;;;;;25.60;6.15;;;;;;;15.55;58.04;102052.06;5074247;28;20063;-46
2022/05/15 00:44:37;;;;;;;25.00;5.65;;;;;;;15.50;58.02;102053.66;5078825;28;20055;-52
2022/05/15 00:47:03;;;;;;;21.70;5.75;;;;;;;15.45;58.12;102052.66;5082162;28;20070;-50
2022/05/15 00:49:29;;;;;;;27.77;6.40;;;;;;;15.42;58.33;102049.13;5076742;28;20479;-52
2022/05/15 00:52:08;;;;;;;20.58;5.40;;;;;;;15.48;58.41;102047.56;5077147;28;20055;-53
2022/05/15 00:54:45;;;;;;;21.40;5.57;;;;;;;15.42;58.43;102046.53;5076681;28;20028;-50
2022/05/15 00:57:18;;;;;;;25.10;6.18;;;;;;;15.41;58.47;102044.75;5088328;28;20107;-51
2022/05/15 01:00:08;;;;;;;19.33;5.13;;;;;;;15.38;58.80;102036.91;5079116;28;20039;-53
2022/05/15 01:02:37;;;;;;;25.73;6.22;;;;;;;15.38;58.72;102055.03;5072168;28;20042;-52
2022/05/15 01:05:04;;;;;;;23.77;5.75;;;;;;;15.37;58.80;102046.38;5076718;28;20020;-50
2022/05/15 01:07:29;;;;;;;19.02;5.13;;;;;;;15.30;58.92;102039.28;5077867;28;20047;-47
2022/05/15 01:09:55;;;;;;;22.40;5.22;;;;;;;15.29;58.98;102042.72;5075047;28;22202;-47
2022/05/15 01:12:21;;;;;;;21.38;5.28;;;;;;;15.28;58.84;102047.00;5078035;28;20209;-53
2022/05/15 01:14:48;;;;;;;19.23;5.22;;;;;;;15.21;59.20;102042.47;5076855;28;20081;-52
2022/05/15 01:17:14;;;;;;;23.50;5.50;;;;;;;15.28;59.01;102051.31;5079887;28;20028;-52
2022/05/15 01:19:41;;;;;;;27.38;5.88;;;;;;;15.25;59.12;102052.09;5074925;28;20107;-52
2022/05/15 01:22:08;;;;;;;25.05;5.40;;;;;;;15.20;59.51;102048.50;5081449;28;20032;-52
2022/05/15 01:24:34;;;;;;;25.27;5.78;;;;;;;15.15;59.47;102051.81;5074508;28;20031;-50
2022/05/15 01:27:04;;;;;;;20.55;5.20;;;;;;;15.14;59.37;102048.34;5076249;28;20520;-53
2022/05/15 01:29:32;;;;;;;23.50;4.85;;;;;;;15.16;59.21;102048.38;5075771;28;20113;-48
2022/05/15 01:31:57;;;;;;;23.73;5.57;;;;;;;15.16;59.58;102046.66;5077734;28;20035;-52
2022/05/15 01:34:23;;;;;;;21.88;4.82;;;;;;;15.13;59.33;102054.34;5073754;28;20031;-48
2022/05/15 01:36:49;;;;;;;24.77;5.20;;;;;;;15.09;59.47;102049.03;5072696;28;20032;-51
2022/05/15 01:39:14;;;;;;;27.90;5.68;;;;;;;15.10;59.74;102051.66;5074250;28;20051;-52
2022/05/15 01:41:39;;;;;;;23.90;5.75;;;;;;;15.11;59.41;102052.56;5076089;28;20601;-52
2022/05/15 01:44:05;;;;;;;23.52;5.80;;;;;;;15.11;59.40;102048.25;5076798;28;20032;-49
2022/05/15 01:46:31;;;;;;;25.65;5.63;;;;;;;15.16;59.47;102046.66;5074530;28;20032;-52
2022/05/15 01:48:59;;;;;;;22.75;5.50;;;;;;;15.13;59.35;102040.53;5074286;28;20089;-48
2022/05/15 01:51:25;;;;;;;23.08;5.68;;;;;;;15.19;59.17;102046.75;5076893;28;20594;-50
2022/05/15 01:53:51;;;;;;;19.00;4.72;;;;;;;15.18;59.06;102034.66;5074057;28;20054;-52
2022/05/15 01:56:17;;;;;;;23.88;5.63;;;;;;;15.23;58.85;102045.13;5073525;28;20581;-50
2022/05/15 01:58:42;;;;;;;23.92;4.90;;;;;;;15.19;59.24;102044.16;5074730;28;20029;-52
2022/05/15 02:01:08;;;;;;;22.83;5.00;;;;;;;15.18;59.19;102044.13;5076513;28;20028;-49
2022/05/15 02:03:34;;;;;;;23.35;4.85;;;;;;;15.22;59.02;102040.75;5082084;28;20486;-52
2022/05/15 02:05:59;;;;;;;33.75;4.93;;;;;;;15.17;59.25;102040.66;5077422;28;20028;-52
2022/05/15 02:08:25;;;;;;;18.33;4.85;;;;;;;15.20;58.90;102034.69;5073192;28;20039;-50
2022/05/15 02:10:51;;;;;;;25.15;5.55;;;;;;;15.21;58.64;102044.19;5079786;28;20500;-49
2022/05/15 02:13:16;;;;;;;24.85;5.45;;;;;;;15.24;58.66;102027.03;5076689;28;20048;-51
2022/05/15 02:15:42;;;;;;;22.17;4.70;;;;;;;15.19;59.04;102027.75;5079652;28;20063;-45
2022/05/15 02:18:08;;;;;;;26.40;5.70;;;;;;;15.21;58.62;102031.25;5081293;28;20028;-52
2022/05/15 02:20:33;;;;;;;19.55;5.00;;;;;;;15.14;58.97;102031.91;5078186;28;20369;-52
2022/05/15 02:22:59;;;;;;;25.02;5.47;;;;;;;15.09;58.86;102031.78;5077186;28;20077;-53
2022/05/15 02:25:27;;;;;;;22.08;5.38;;;;;;;15.05;59.11;102032.56;5078965;28;20032;-49
2022/05/15 02:27:52;;;;;;;21.67;5.13;;;;;;;15.11;58.98;102034.44;5075895;28;20058;-49
2022/05/15 02:30:18;;;;;;;20.50;5.15;;;;;;;15.11;59.00;102037.91;5078245;28;20031;-52
2022/05/15 02:32:44;;;;;;;26.05;5.25;;;;;;;15.14;58.89;102032.78;5077615;28;20043;-51
2022/05/15 02:35:10;;;;;;;23.92;5.20;;;;;;;15.15;58.80;102034.53;5078182;28;20032;-52
2022/05/15 02:37:37;;;;;;;20.85;5.50;;;;;;;15.11;58.99;102037.03;5074799;28;20042;-49
2022/05/15 02:40:05;;;;;;;21.08;5.40;;;;;;;15.11;59.05;102031.84;5077962;28;20054;-52
2022/05/15 02:42:31;;;;;;;23.52;5.10;;;;;;;15.07;58.99;102028.28;5075171;28;20032;-50
2022/05/15 02:44:56;;;;;;;22.23;5.18;;;;;;;15.07;59.16;102024.81;5076302;28;20028;-52
2022/05/15 02:47:21;;;;;;;21.40;4.85;;;;;;;15.07;59.13;102028.28;5080914;28;20031;-49
2022/05/15 02:52:31;;;;;;;22.88;5.10;;;;;;;15.01;59.22;102025.50;5079025;28;20849;-53
2022/05/15 02:54:56;;;;;;;24.58;5.03;;;;;;;14.92;59.56;102020.94;5077624;28;20044;-46
2022/05/15 02:57:22;;;;;;;23.73;5.22;;;;;;;14.88;59.76;102026.00;5076114;28;20032;-52
2022/05/15 02:59:47;;;;;;;22.35;5.25;;;;;;;14.83;60.02;102022.41;5077106;28;20093;-51
2022/05/15 03:02:13;;;;;;;21.02;5.00;;;;;;;14.82;60.04;102018.94;5080174;28;20115;-45
2022/05/15 03:04:38;;;;;;;22.45;5.18;;;;;;;14.79;60.07;102016.25;5081483;28;20032;-46
2022/05/15 03:07:05;;;;;;;26.50;5.53;;;;;;;14.77;60.19;102017.03;5077091;28;20543;-47
2022/05/15 03:09:31;;;;;;;22.38;5.13;;;;;;;14.67;60.61;102013.28;5077790;28;20032;-53
2022/05/15 03:11:56;;;;;;;20.17;4.90;;;;;;;14.68;60.58;102005.59;5077440;28;20642;-52
2022/05/15 03:14:22;;;;;;;19.98;5.25;;;;;;;14.71;60.60;101999.63;5082292;28;20020;-52
2022/05/15 03:16:47;;;;;;;26.20;5.32;;;;;;;14.68;60.48;102012.44;5075319;28;20035;-48
2022/05/15 03:19:12;;;;;;;24.02;5.25;;;;;;;14.63;60.71;102014.06;5077150;28;20488;-47
2022/05/15 03:21:38;;;;;;;28.02;5.43;;;;;;;14.61;61.04;102015.69;5077060;28;20039;-49
2022/05/15 03:24:13;;;;;;;26.52;5.05;;;;;;;14.68;60.50;102005.59;5078519;28;20032;-49
2022/05/15 03:26:43;;;;;;;23.40;5.55;;;;;;;14.63;60.87;102012.34;5077109;28;20035;-52
2022/05/15 03:29:10;;;;;;;21.75;5.00;;;;;;;14.56;61.05;102010.41;5077188;28;20228;-52
2022/05/15 03:31:37;;;;;;;22.90;5.28;;;;;;;14.61;61.16;102013.09;5078338;28;20357;-52
2022/05/15 03:34:03;;;;;;;24.02;5.78;;;;;;;14.52;61.52;102003.38;5074568;28;20024;-52
2022/05/15 03:36:29;;;;;;;25.58;5.47;;;;;;;14.49;61.38;102003.25;5075379;28;20032;-52
2022/05/15 03:38:55;;;;;;;24.50;5.70;;;;;;;14.51;61.33;102006.81;5076408;28;20043;-44
2022/05/15 03:41:20;;;;;;;23.35;5.35;;;;;;;14.50;61.18;102005.03;5079246;28;20055;-51
2022/05/15 03:43:46;;;;;;;22.85;5.68;;;;;;;14.44;61.36;101992.78;5077514;28;20036;-51
2022/05/15 03:46:12;;;;;;;23.50;5.15;;;;;;;14.48;61.35;101998.94;5074957;28;20024;-47
2022/05/15 03:48:38;;;;;;;25.23;5.20;;;;;;;14.48;61.61;102001.50;5076414;28;20085;-52
2022/05/15 03:51:03;;;;;;;23.55;5.32;;;;;;;14.42;61.52;101998.72;5067863;28;20089;-49
2022/05/15 03:53:29;;;;;;;21.75;5.10;;;;;;;14.40;61.72;101997.78;5076652;28;20433;-51
2022/05/15 03:55:58;;;;;;;25.33;5.43;;;;;;;14.43;61.71;102003.03;5073020;28;20135;-45
2022/05/15 03:58:25;;;;;;;25.17;5.75;;;;;;;14.41;61.61;101997.84;5075701;28;20028;-52
2022/05/15 04:00:51;;;;;;;27.05;5.38;;;;;;;14.41;61.67;102004.72;5076546;28;20074;-52
2022/05/15 04:03:16;;;;;;;22.58;5.43;;;;;;;14.36;61.72;102006.28;5075832;28;20051;-53
2022/05/15 04:05:42;;;;;;;25.65;5.95;;;;;;;14.33;62.02;102001.91;5078319;28;20038;-50
2022/05/15 04:08:07;;;;;;;24.23;5.45;;;;;;;14.36;62.20;102001.97;5077237;28;20430;-47
2022/05/15 04:10:33;;;;;;;23.33;5.40;;;;;;;14.33;62.19;102001.91;5074555;28;20043;-50
2022/05/15 04:12:58;;;;;;;24.88;5.63;;;;;;;14.30;61.88;101996.63;5073698;28;20051;-52
2022/05/15 04:15:24;;;;;;;24.15;5.53;;;;;;;14.34;62.07;102001.06;5075822;28;20033;-52
2022/05/15 04:17:50;;;;;;;25.23;5.47;;;;;;;14.35;62.39;102005.41;5078111;28;20081;-50
2022/05/15 04:20:19;;;;;;;23.98;5.90;;;;;;;14.35;62.42;102004.53;5075162;28;20028;-49
2022/05/15 04:22:45;;;;;;;;;;;;;;;14.58;60.96;102008.72;5075603;28;20043;-52
2022/05/15 04:25:13;;;;;;;21.65;5.63;;;;;;;14.37;62.04;102008.91;5078283;28;19916;-49
2022/05/15 04:27:40;;;;;;;17.93;5.20;;;;;;;14.38;62.09;102015.00;5079929;28;20031;-45
2022/05/15 04:30:07;;;;;;;24.63;5.50;;;;;;;14.35;62.82;102020.06;5074437;28;20290;-46
2022/05/15 04:32:33;;;;;;;20.52;6.07;;;;;;;14.34;62.45;102014.00;5075095;28;20109;-48
2022/05/15 04:34:58;;;;;;;27.33;6.10;;;;;;;14.37;62.26;102020.97;5076557;28;20036;-50
2022/05/15 04:37:24;;;;;;;23.65;5.10;;;;;;;14.32;62.57;102015.69;5076968;28;20044;-51
2022/05/15 04:39:49;;;;;;;22.73;5.85;;;;;;;14.33;62.67;102004.50;5075864;28;20031;-51
2022/05/15 04:42:16;;;;;;;22.50;6.00;;;;;;;14.36;62.55;102011.47;5075358;28;20035;-50
2022/05/15 04:44:41;;;;;;;20.85;5.88;;;;;;;14.42;62.65;102015.09;5075390;28;20489;-49
2022/05/15 04:47:06;;;;;;;24.95;6.38;;;;;;;14.38;62.60;102008.09;5077363;28;20118;-50
2022/05/15 04:49:32;;;;;;;25.00;6.22;;;;;;;14.39;62.96;102001.22;5081592;28;20040;-46
2022/05/15 04:51:57;;;;;;;18.60;5.97;;;;;;;14.31;63.18;102008.72;5075317;28;20020;-50
2022/05/15 04:54:24;;;;;;;24.27;6.50;;;;;;;14.38;63.24;102010.69;5074685;28;20063;-51
2022/05/15 04:56:49;;;;;;;25.48;6.35;;;;;;;14.41;62.85;102004.72;5075049;28;20107;-52
2022/05/15 04:59:14;;;;;;;27.80;5.88;;;;;;;14.41;62.79;102002.13;5080125;28;20058;-52
2022/05/15 05:01:41;;;;;;;25.55;6.85;;;;;;;14.43;63.03;102010.81;5072311;28;20473;-46
2022/05/15 05:04:06;;;;;;;22.17;6.28;;;;;;;14.45;63.19;102007.47;5073665;28;20456;-48
2022/05/15 05:06:33;;;;;;;29.80;6.97;;;;;;;14.45;63.02;102007.47;5073171;28;20034;-50
2022/05/15 05:08:58;;;;;;;19.25;6.35;;;;;;;14.51;62.76;102013.69;5075259;28;20468;-49
2022/05/15 05:11:23;;;;;;;29.10;6.38;;;;;;;14.59;63.08;102019.97;5077338;28;20058;-48
2022/05/15 05:13:49;;;;;;;21.80;6.38;;;;;;;14.65;62.82;102020.16;5074652;28;20119;-52
2022/05/15 05:16:15;;;;;;;26.73;6.90;;;;;;;14.67;63.22;102021.06;5077019;28;20480;-49
2022/05/15 05:18:41;;;;;;;25.23;6.68;;;;;;;14.73;63.16;102016.94;5076784;28;20024;-51
2022/05/15 05:21:07;;;;;;;25.23;6.68;;;;;;;14.77;63.09;102023.09;5080469;28;20039;-52
2022/05/15 05:23:33;;;;;;;24.20;6.80;;;;;;;14.85;63.04;102021.59;5071756;28;20024;-51
2022/05/15 05:25:58;;;;;;;23.20;6.72;;;;;;;14.91;62.43;102016.59;5075297;28;20024;-46
2022/05/15 05:28:25;;;;;;;23.67;6.80;;;;;;;14.95;62.76;102018.44;5077414;28;20063;-47
2022/05/15 05:30:51;;;;;;;24.55;6.68;;;;;;;14.99;62.03;102019.44;5076647;28;20480;-52
2022/05/15 05:33:18;;;;;;;21.20;6.70;;;;;;;15.05;61.92;102013.53;5077252;28;20536;-52
2022/05/15 05:35:44;;;;;;;21.38;6.82;;;;;;;15.06;61.59;102008.41;5074509;28;20020;-51
2022/05/15 05:38:10;;;;;;;22.30;7.25;;;;;;;15.16;61.58;102012.09;5076426;28;21873;-49
2022/05/15 05:40:36;;;;;;;23.55;6.65;;;;;;;15.26;61.47;102019.31;5081535;28;20032;-52
2022/05/15 05:43:02;;;;;;;25.45;7.05;;;;;;;15.29;61.28;102017.69;5078532;28;20085;-44
2022/05/15 05:45:28;;;;;;;22.13;7.10;;;;;;;15.39;61.26;102015.31;5078752;28;20031;-50
2022/05/15 05:47:55;;;;;;;25.13;7.30;;;;;;;15.54;60.94;102013.16;5078446;28;20039;-48
2022/05/15 05:50:22;;;;;;;22.75;7.45;;;;;;;15.59;60.17;102018.44;5077546;28;20061;-49
2022/05/15 05:52:48;;;;;;;24.38;7.47;;;;;;;15.67;60.04;102016.97;5079763;28;20767;-52
2022/05/15 05:55:16;;;;;;;24.90;7.13;;;;;;;15.77;59.97;102016.34;5077501;28;20033;-51
2022/05/15 05:57:43;;;;;;;28.20;7.53;;;;;;;15.86;59.51;102013.97;5079729;28;20035;-46
2022/05/15 06:00:13;;;;;;;26.75;8.40;;;;;;;15.94;59.64;102008.97;5081745;28;20032;-51
2022/05/15 06:02:39;;;;;;;20.98;7.20;;;;;;;16.07;59.70;102011.91;5078566;28;20029;-52
2022/05/15 06:05:05;;;;;;;21.83;7.13;;;;;;;16.20;59.09;102017.38;5075269;28;20054;-46
2022/05/15 06:07:33;;;;;;;23.30;7.63;;;;;;;16.28;58.90;102011.53;5077116;28;20028;-52
2022/05/15 06:10:00;;;;;;;23.63;7.33;;;;;;;16.34;58.50;102022.06;5069852;28;20488;-52
2022/05/15 06:12:25;;;;;;;22.00;7.10;;;;;;;16.50;58.25;102018.09;5077684;28;20305;-52
2022/05/15 06:14:52;;;;;;;22.00;7.32;;;;;;;16.54;58.13;102014.69;5078622;28;20377;-52
2022/05/15 06:17:22;;;;;;;24.40;7.22;;;;;;;16.65;57.78;102022.72;5075421;28;20138;-49
2022/05/15 06:19:48;;;;;;;23.50;7.18;;;;;;;16.70;57.42;102009.84;5074257;28;20134;-52
2022/05/15 06:22:13;;;;;;;24.38;7.63;;;;;;;16.88;57.00;102012.88;5076618;28;20061;-52
2022/05/15 06:24:39;;;;;;;24.67;7.45;;;;;;;16.95;57.27;102006.94;5073379;28;20133;-51
2022/05/15 06:27:05;;;;;;;20.73;7.60;;;;;;;17.10;57.29;102006.34;5079423;28;20488;-52
2022/05/15 06:29:31;;;;;;;16.58;6.82;;;;;;;17.30;57.08;102009.34;5076854;28;20058;-47
2022/05/15 06:31:57;;;;;;;25.17;7.82;;;;;;;17.34;56.39;102021.53;5081698;28;20032;-52
2022/05/15 06:34:23;;;;;;;24.40;7.95;;;;;;;17.43;55.64;102013.94;5076360;28;20040;-51
2022/05/15 06:36:48;;;;;;;22.65;7.47;;;;;;;17.46;55.61;102016.56;5077233;28;20468;-52
2022/05/15 06:39:14;;;;;;;21.85;7.25;;;;;;;17.52;55.77;102011.47;5077688;28;20099;-44
2022/05/15 06:41:39;;;;;;;22.77;7.20;;;;;;;17.64;55.32;102009.09;5078827;28;20046;-51
2022/05/15 06:44:05;;;;;;;19.95;7.50;;;;;;;17.81;54.69;102008.53;5071490;28;20136;-50
2022/05/15 06:46:32;;;;;;;25.08;7.97;;;;;;;17.92;54.82;102007.88;5066599;28;20031;-51
2022/05/15 06:48:57;;;;;;;26.05;7.90;;;;;;;18.08;54.24;102011.59;5074859;28;20036;-52
2022/05/15 06:51:22;;;;;;;21.52;8.63;;;;;;;18.21;54.47;102004.84;5072265;28;20043;-50
2022/05/15 06:53:48;;;;;;;20.77;7.95;;;;;;;18.30;53.85;102006.69;5076752;28;20124;-50
2022/05/15 06:58:59;;;;;;;20.88;8.25;;;;;;;18.67;53.34;102011.56;5075375;28;20137;-51
2022/05/15 07:01:25;;;;;;;27.23;8.88;;;;;;;18.78;53.57;102010.84;5077435;28;20043;-51
2022/05/15 07:03:51;;;;;;;20.85;8.50;;;;;;;18.84;52.54;102001.38;5080115;28;20107;-52
2022/05/15 07:06:16;;;;;;;24.15;8.75;;;;;;;18.90;52.83;102009.28;5078643;28;20028;-53
2022/05/15 07:08:42;;;;;;;18.92;8.27;;;;;;;19.00;52.30;101998.09;5082116;28;20020;-50
2022/05/15 07:11:10;;;;;;;18.10;8.05;;;;;;;19.15;51.65;102007.81;5081435;28;20027;-49
2022/05/15 07:13:36;;;;;;;21.40;8.32;;;;;;;19.25;51.23;102007.06;5077151;28;20070;-51
2022/05/15 07:16:01;;;;;;;23.92;8.23;;;;;;;19.25;51.35;102008.78;5079826;28;20039;-54
2022/05/15 07:18:26;;;;;;;21.83;8.85;;;;;;;19.33;51.71;102011.47;5073713;28;20032;-51
2022/05/15 07:20:52;;;;;;;17.95;7.18;;;;;;;19.38;52.33;102015.00;5082877;28;20035;-48
2022/05/15 07:23:19;;;;;;;18.50;8.02;;;;;;;19.50;50.88;102016.00;5075945;28;20028;-53
2022/05/15 07:25:45;;;;;;;20.65;7.95;;;;;;;19.61;50.40;102017.88;5082304;28;20617;-53
2022/05/15 07:28:11;;;;;;;20.95;7.50;;;;;;;19.67;50.52;102018.81;5079892;28;20024;-51
2022/05/15 07:30:37;;;;;;;19.48;7.90;;;;;;;19.68;50.08;102012.72;5078369;28;20038;-51
2022/05/15 07:33:03;;;;;;;24.00;8.18;;;;;;;19.83;49.73;102018.06;5078934;28;20028;-51
2022/05/15 07:35:28;;;;;;;15.55;6.50;;;;;;;19.95;50.00;102019.03;5079533;28;20419;-53
2022/05/15 07:37:54;;;;;;;18.55;7.45;;;;;;;19.90;49.25;102010.28;5078779;28;20032;-51
2022/05/15 07:40:21;;;;;;;14.23;6.55;;;;;;;20.03;49.44;102014.75;5077924;28;20480;-48
2022/05/15 07:42:46;;;;;;;18.30;7.47;;;;;;;20.13;49.51;102013.06;5080304;28;20036;-47
2022/05/15 07:45:12;;;;;;;18.88;6.90;;;;;;;20.36;50.49;102017.56;5076642;28;20528;-46
2022/05/15 07:47:38;;;;;;;23.63;8.35;;;;;;;20.48;50.32;102014.19;5078490;28;20040;-53
2022/05/15 07:50:05;;;;;;;19.95;8.00;;;;;;;20.62;48.82;102011.63;5083085;28;20111;-52
2022/05/15 07:52:32;;;;;;;18.83;7.93;;;;;;;20.64;47.40;102009.06;5077435;28;20103;-53
2022/05/15 07:54:58;;;;;;;17.00;7.65;;;;;;;20.69;47.73;102012.53;5079633;28;20036;-53
2022/05/15 07:57:24;;;;;;;20.30;7.78;;;;;;;20.78;47.25;102009.97;5079877;28;20058;-53
2022/05/15 07:59:50;;;;;;;17.00;7.45;;;;;;;20.84;47.26;102007.38;5076167;28;20040;-53
2022/05/15 08:02:16;;;;;;;19.35;7.10;;;;;;;20.98;47.55;102015.28;5078575;28;20059;-52
2022/05/15 08:10:10;;;;;;;16.63;5.90;;;;;;;21.32;46.75;102005.81;5077090;28;20543;-49
2022/05/15 08:12:35;;;;;;;15.10;6.22;;;;;;;21.39;46.59;101997.97;5084595;28;20488;-52
2022/05/15 08:15:02;;;;;;;20.08;7.13;;;;;;;21.49;46.33;101993.63;5080018;28;20035;-53
2022/05/15 08:17:27;;;;;;;17.50;6.65;;;;;;;21.56;46.13;101997.13;5081874;28;20123;-50
2022/05/15 08:25:21;;;;;;;15.95;7.30;;;;;;;21.77;44.57;101981.41;5083902;28;20070;-53
2022/05/15 08:27:46;;;;;;;17.70;7.03;;;;;;;21.88;44.27;101977.03;5076648;28;20047;-53
2022/05/15 08:30:13;;;;;;;18.55;7.03;;;;;;;21.88;44.51;101971.81;5077685;28;20127;-51
2022/05/15 08:32:39;;;;;;;19.23;7.20;;;;;;;21.94;44.44;101977.03;5081315;28;20127;-53
2022/05/15 08:35:04;;;;;;;17.05;6.85;;;;;;;22.09;43.86;101970.03;5079140;28;20555;-51
2022/05/15 08:37:30;;;;;;;17.75;6.97;;;;;;;22.11;44.54;101971.81;5079592;28;20036;-53
2022/05/15 08:39:56;;;;;;;15.30;6.50;;;;;;;22.20;43.57;101968.28;5072332;28;20447;-54
2022/05/15 08:42:34;;;;;;;17.20;6.13;;;;;;;22.32;43.53;101967.38;5080261;28;20064;-51
2022/05/15 08:45:01;;;;;;;15.07;7.03;;;;;;;22.39;42.94;101963.88;5081525;28;20020;-54
2022/05/15 08:47:35;;;;;;;14.75;6.55;;;;;;;22.45;43.04;101959.50;5080795;28;20043;-54
2022/05/15 08:50:06;;;;;;;19.15;6.82;;;;;;;22.54;42.38;101958.56;5077456;28;20023;-53
2022/05/15 08:53:07;;;;;;;18.70;6.93;;;;;;;22.61;41.85;101959.41;5083917;28;20031;-54
2022/05/15 08:55:42;;;;;;;19.98;6.75;;;;;;;22.65;41.62;101955.91;5076423;28;20535;-54
2022/05/15 08:58:13;;;;;;;21.85;7.60;;;;;;;22.58;41.17;101948.97;5086081;28;20036;-54
2022/05/15 09:00:46;;;;;;;16.50;5.53;;;;;;;22.72;42.11;101958.50;5072848;28;20028;-51
2022/05/15 09:03:18;;;;;;;18.52;6.30;;;;;;;22.79;40.87;101947.97;5079223;28;20063;-54
2022/05/15 09:06:05;;;;;;;15.68;5.90;;;;;;;22.89;39.46;101958.44;5076415;28;20029;-51
2022/05/15 09:08:33;;;;;;;15.27;6.45;;;;;;;22.89;38.30;101950.56;5078552;28;20028;-54
2022/05/15 09:11:05;;;;;;;12.27;5.30;;;;;;;22.91;38.80;101948.81;5079301;28;20118;-61
2022/05/15 09:13:39;;;;;;;14.57;5.85;;;;;;;22.92;38.54;101952.28;5086961;28;20306;-52
2022/05/15 09:16:15;;;;;;;15.07;5.57;;;;;;;22.97;38.22;101948.75;5079412;28;20120;-47
2022/05/15 09:18:40;;;;;;;13.70;5.00;;;;;;;23.05;37.60;101946.09;5083796;28;20079;-50
2022/05/15 09:21:12;;;;;;;16.63;4.90;;;;;;;23.13;38.16;101951.31;5075688;28;20046;-52
2022/05/15 09:23:41;;;;;;;11.90;5.05;;;;;;;23.14;37.94;101943.41;5080889;28;20039;-52
2022/05/15 09:26:06;;;;;;;11.43;5.10;;;;;;;23.23;37.86;101942.47;5077409;28;20062;-54
2022/05/15 09:28:41;;;;;;;14.45;5.68;;;;;;;23.30;37.50;101946.81;5082123;28;20032;-49
2022/05/15 09:31:21;;;;;;;13.77;4.50;;;;;;;23.36;37.51;101933.66;5080356;28;20028;-53
2022/05/15 09:33:51;;;;;;;15.65;4.28;;;;;;;23.45;35.73;101946.69;5074957;28;22102;-49
2022/05/15 09:36:30;;;;;;;14.73;4.70;;;;;;;23.54;35.43;101938.75;5078894;28;20480;-53
2022/05/15 09:39:18;;;;;;;;;;;;;;;23.60;36.79;101935.19;5082478;28;20113;-52
2022/05/15 09:44:35;;;;;;;9.30;4.18;;;;;;;23.59;34.36;101935.19;5075673;28;20416;-52
2022/05/15 09:47:19;;;;;;;10.52;4.30;;;;;;;23.64;33.52;101918.53;5080747;28;20028;-53
2022/05/15 09:49:45;;;;;;;12.80;4.88;;;;;;;23.73;33.51;101921.09;5079624;28;20488;-52
2022/05/15 09:52:19;;;;;;;15.02;4.50;;;;;;;23.64;33.07;101922.91;5077636;28;20023;-52
2022/05/15 09:54:48;;;;;;;12.18;4.18;;;;;;;23.71;32.72;101914.09;5077524;28;20393;-50
2022/05/15 09:57:27;;;;;;;11.48;4.63;;;;;;;23.78;32.40;101913.16;5080274;28;20031;-56
2022/05/15 09:59:55;;;;;;;;;;;;;;;23.90;32.60;101923.53;5082010;28;20031;-46
2022/05/15 10:02:25;;;;;;;10.13;4.28;;;;;;;23.94;33.30;101916.50;5079030;28;19922;-50
2022/05/15 10:04:52;;;;;;;16.23;4.95;;;;;;;23.99;32.48;101910.31;5080263;28;20551;-52
2022/05/15 10:07:31;;;;;;;16.20;5.07;;;;;;;24.05;33.08;101906.75;5078671;28;20038;-49
2022/05/15 10:10:12;;;;;;;13.20;4.47;;;;;;;24.17;33.00;101917.13;5079091;28;20476;-53
2022/05/15 10:12:41;;;;;;;15.60;4.30;;;;;;;24.29;32.34;101914.34;5080135;28;20169;-54
2022/05/15 10:15:07;;;;;;;12.98;4.78;;;;;;;24.30;31.99;101915.22;5071641;28;20024;-53
2022/05/15 10:17:33;;;;;;;11.68;4.22;;;;;;;24.30;32.28;101912.56;5073491;28;20062;-50
2022/05/15 10:20:10;;;;;;;8.50;3.95;;;;;;;24.49;33.67;101905.34;5082284;28;20024;-54
2022/05/15 10:22:58;;;;;;;8.68;3.38;;;;;;;24.65;31.63;101911.28;5068145;28;20143;-48
2022/05/15 10:25:43;;;;;;;10.98;3.30;;;;;;;24.80;30.38;101908.44;5083930;28;20024;-51
2022/05/15 10:28:27;;;;;;;10.82;3.85;;;;;;;24.96;31.67;101912.59;5084272;28;20043;-49
2022/05/15 10:31:09;;;;;;;13.82;3.85;;;;;;;25.14;31.70;101898.31;5082670;28;20032;-52
2022/05/15 10:33:41;;;;;;;9.73;3.60;;;;;;;25.16;30.34;101895.66;5085349;28;20078;-53
2022/05/15 10:36:27;;;;;;;9.80;4.38;;;;;;;25.16;30.80;101896.50;5080179;28;20086;-53
2022/05/15 10:39:05;;;;;;;17.10;4.63;;;;;;;25.17;30.92;101892.13;5082556;28;20027;-53
2022/05/15 10:41:41;;;;;;;15.82;3.72;;;;;;;25.20;31.06;101889.44;5081059;28;20040;-51
2022/05/15 10:44:10;;;;;;;11.13;3.90;;;;;;;25.26;30.85;101890.22;5067632;28;20025;-54
2022/05/15 10:47:18;;;;;;;11.77;4.07;;;;;;;25.24;29.88;101884.13;5077524;28;20078;-50
2022/05/15 10:50:18;;;;;;;11.30;3.70;;;;;;;25.12;29.01;101879.91;5057999;28;20043;-48
2022/05/15 10:59:36;;;;;;;14.20;3.10;;;;;;;25.44;29.65;101865.34;5043177;28;20040;-46
2022/05/15 11:02:14;;;;;;;10.80;2.97;;;;;;;25.64;29.27;101868.47;5077632;28;20039;-50
2022/05/15 11:05:08;;;;;;;11.43;2.92;;;;;;;25.81;29.93;101865.53;5078680;28;20020;-53
2022/05/15 11:07:49;;;;;;;13.63;3.28;;;;;;;25.96;28.67;101879.31;5056623;28;20044;-52
2022/05/15 11:10:33;;;;;;;9.77;2.70;;;;;;;26.14;28.70;101871.88;5074831;28;20448;-49
2022/05/15 11:12:58;;;;;;;8.65;2.90;;;;;;;26.21;27.40;101872.66;5071282;28;20113;-50
2022/05/15 11:15:53;;;;;;;12.52;3.45;;;;;;;26.30;27.69;101868.94;5071240;28;20012;-46
2022/05/15 11:18:40;;;;;;;9.45;2.92;;;;;;;26.34;27.29;101868.84;5024563;28;20041;-48
2022/05/15 11:21:12;;;;;;;12.63;3.90;;;;;;;26.08;27.07;101863.25;5078453;28;20050;-51
2022/05/15 11:23:48;;;;;;;9.98;3.60;;;;;;;26.10;27.59;101864.97;5071820;28;20040;-54
2022/05/15 11:26:13;;;;;;;12.68;3.60;;;;;;;26.06;27.67;101858.00;5073976;28;20055;-51
2022/05/15 11:28:52;;;;;;;9.07;3.40;;;;;;;26.11;28.56;101850.03;5075664;28;20051;-52
2022/05/15 11:31:21;;;;;;;;;;;;;;;26.32;28.73;101846.03;5072137;28;20031;-48
2022/05/15 11:34:04;;;;;;;12.65;2.92;;;;;;;26.23;29.16;101841.00;5077170;28;19924;-53
2022/05/15 11:36:43;;;;;;;10.25;3.25;;;;;;;26.07;28.40;101836.03;5071549;28;20028;-49
2022/05/15 11:39:15;;;;;;;14.02;3.53;;;;;;;26.06;28.78;101833.44;5076727;28;20119;-52
2022/05/15 11:41:43;;;;;;;11.95;3.33;;;;;;;26.00;28.58;101829.16;5075861;28;20059;-52
2022/05/15 11:44:37;;;;;;;12.70;3.30;;;;;;;25.99;28.21;101829.19;5075870;28;20032;-51
2022/05/15 11:47:15;;;;;;;15.32;3.65;;;;;;;25.82;28.06;101819.00;5065028;28;20393;-49
2022/05/15 11:50:09;;;;;;;10.25;3.38;;;;;;;25.84;28.65;101818.03;5077680;28;20295;-52
2022/05/15 11:52:35;;;;;;;11.55;3.45;;;;;;;25.71;28.75;101818.28;5079160;28;20495;-52